San Antonio, FL (33576)

5:33 PM EDT on October 23, 2014 (GMT -0400)
Rural Wesley Chapel | Change Station
CLOSE
Current Station
Personal Weather Station
Location: Wesley Chapel, FL
Elevation: 125 ft
Nearby Weather Stations

Elev 125 ft 28.30 °N, 82.30 °W | Updated 2 minutes ago

Clear
Clear
79.7 °F
Feels Like 80 °F
N
2.7
Wind Variable Wind from NNE

Today
High -- | Low -- °F
--% Chance of Precip.
Yesterday
High -- | Low -- °F
Precip. -- in
7:34 AM 6:51 PM
Waning Crescent, 0% visible
Pressure 29.93 in
Visibility -9999.0 miles
Clouds Clear
Heat Index 80 °F
Dew Point 56 °F
Humidity 44%
Rainfall 0.00 in
Snow Depth Not available.
UV 2 out of 12
Pollen 6.40 out of 12
Air Quality Not available.
Flu Activity Local Activity
METAR KZPH 232115Z AUTO 03004KT CLR 27/08 A2993 RMK AO2 PWINO

More Conditions Fewer Conditions

Pressure 29.93 in
Visibility -9999.0 miles
Clouds Clear
Heat Index 80 °F
Dew Point 56 °F
Humidity 44%
Rainfall 0.00 in
Snow Depth Not available.
UV 2 out of 12
Pollen 6.40 out of 12
Air Quality Not available.
Flu Activity Local Activity
METAR KZPH 232115Z AUTO 03004KT CLR 27/08 A2993 RMK AO2 PWINO

More Conditions Fewer Conditions

10-Day Weather Forecast

Almanac

Astronomy

Oct. 23, 2014 Rise Set
Actual Time 7:34 AM EDT 6:51 PM EDT
Civil Twilight 7:10 AM EDT 7:15 PM EDT
Nautical Twilight 6:43 AM EDT 7:43 PM EDT
Astronomical Twilight 6:15 AM EDT 8:10 PM EDT
Moon 7:15 AM EDT 6:52 PM EDT
Length of Visible Light 12h 05m
Length of Day
11h 17m
Tomorrow will be 1m 34s shorter.
Waning Crescent, 0% of the Moon is Illuminated
Today
Waning Crescent
Oct 23
New
Oct 30
First Quarter
Nov 6
Full
Nov 14
Last Quarter

Today's Extremes

State Highs State Lows

Community

WunderPhotos

Upload Photos

1,764,379 photos uploaded!

WunderBlogs® & News

Nearby

Snow Depth

Station Depth Elevation
No new snow has been reported.

Earthquake Activity

City Distance Mag. Time & Date
No recent earthquake activity has been reported nearby.
Minimum magnitude displayed is 2.5.

Coastal Water Temperatures

Place Temperature
No Stations Reporting

Nearby Weather Stations